KHOT/HOT METAR and TAF weather

Enter ICAO airport designator
Station Type Date Time Source
KHOT METAR 2019/12/07 14:53 UTC NOAA

KHOT 071453Z AUTO 09005KT 9SM CLR 06/00 A3036 RMK AO2 SLP279 T00560000 51011


Station Type Date Time Source
KHOT Decoded METAR 2019/12/07 14:53 UTC NOAA

HOT SPRINGS MEMORIAL FIELD, AR, United States (KHOT) 34-29N 093-06W 162M
Dec 07, 2019 - 09:53 AM EST / 2019.12.07 1453 UTC
Wind: from the E (090 degrees) at 6 MPH (5 KT):0
Visibility: 9 mile(s):0
Sky conditions: clear
Temperature: 42.1 F (5.6 C)
Dew Point: 32.0 F (0.0 C)
Relative Humidity: 67%
Pressure (altimeter): 30.36 in. Hg (1028 hPa)
Pressure tendency: 0.03 inches (1.1 hPa) higher than three hours ago
ob: KHOT 071453Z AUTO 09005KT 9SM CLR 06/00 A3036 RMK AO2 SLP279 T00560000 51011
cycle: 15

Station Type Date Time Source
KHOT TAF 2019/12/07 12:24 UTC NOAA

TAF KHOT 071122Z 0712/0812 06007KT 6SM BR SKC
FM071500 11003KT P6SM FEW250
FM080500 12003KT P6SM OVC250

Example: see airport list